Hovedside
METAR-TAF:

METAR-TAF

Lufthavner :

Riga internasjonale lufthavn

Riga, Latvia

breddegrad: 56-55N, lengdegrad: 023-58E, høyde over havet: 10 m

Gjeldene værobservasjon

Denne rapporten ble laget for 33 minutter siden, klokken 04:20 UTC
Vind 5 kt fra Sør
Temperatur 6°C
Luftfuktighet 93%
Trykk 1020 hPa
Sikt 10 km eller mer
ingen skyer under 1500 m og ingen bygeskyer

METAR: EVRA 160420Z 17005KT CAVOK 06/05 Q1020 R18/090095 NOSIG

Tid: 07:53 (04:53 UTC)

Varsel

Denne rapporten ble laget for 2 timer og 50 minutter siden, klokken 02:03 UTC
Varsel gyldig fra 16. klokken 03 UTC til 17. klokken 03 UTC
Vind 7 kt fra Sør
Sikt 10 km eller mer
ingen skyer under 1500 m og ingen bygeskyer

TAF: EVRA 160203Z 1603/1703 17007KT CAVOK

Værobservasjoner og værvarsel for over 4000 flyplasser (METAR- og TAF-rapporter).

Tilgjengelige stasjoner er representert av de røde og gule prikkene på kartet.

Hold musepekeren over prikken for å se navnet på stasjonen.

Klikk så for å se værobservasjoner og -varsler.

For å forandre kartet kan du klikke på den grønne knappen med svart kryss for å zoome inn, på den grønne knappen med strek for å zoome ut, eller på de grønne pilene for å se tilstøtende kart.


METAR-TAF: